Home > Products > Valid Products > TAF

000
FTUS44 KEWX 161700 RRA
TAFAUS
TAF
KAUS 161741Z 1618/1724 05010KT P6SM SCT025 BKN250
      TEMPO 1621/1624 VRB20G30KT 5SM TSRA BKN030CB
     FM170700 15005KT P6SM BKN025
     FM171400 15005KT P6SM BKN040 PROB30 1714/1718 5SM TSRA BKN040CB
     FM171800 15010KT P6SM BKN040 PROB30 1718/1724 5SM TSRA
      BKN040CB=



000
FTUS44 KEWX 161700 RRA
TAFSAT
TAF
KSAT 161741Z 1618/1724 07010KT P6SM BKN030
     FM161900 07010KT P6SM BKN035
      TEMPO 1620/1623 VRB20G30KT 5SM TSRA BKN030CB
     FM170700 12005KT P6SM BKN025
     FM171400 15005KT P6SM BKN040 PROB30 1714/1718 5SM TSRA BKN040CB
     FM171800 15010KT P6SM BKN040 PROB30 1718/1724 5SM TSRA
      BKN040CB=



000
FTUS44 KEWX 161700 RRA
TAFDRT
TAF
KDRT 161741Z 1618/1718 13005KT P6SM BKN060
     FM170000 09010KT P6SM BKN050
     FM171100 09005KT P6SM BKN025
     FM171400 13010KT P6SM BKN050=



000
FTUS44 KEWX 161600 AAA
TAFSAT
TAF AMD
KSAT 161613Z 1616/1718 07010KT P6SM BKN025
     FM161800 07010KT P6SM SCT025 BKN250
      TEMPO 1619/1623 VRB20G30KT 5SM TSRA BKN030CB
     FM170600 12005KT P6SM VCSH BKN025
     FM171200 15005KT 5SM -SHRA BKN025=



000
FTUS44 KEWX 161100
TAFDRT
TAF
KDRT 161122Z 1612/1712 00000KT P6SM BKN040
     FM161600 10008KT P6SM BKN040 PROB30 1700/1704 VRB20KT 5SM TSRA
      OVC030CB=



000
FTUS44 KEWX 161100
TAFSAT
TAF
KSAT 161122Z 1612/1718 04006KT P6SM FEW035 SCT200
     FM161500 09010KT P6SM BKN040
      TEMPO 1619/1623 VRB20G30KT 5SM TSRA BKN030CB
     FM170600 12005KT P6SM VCSH BKN025
     FM171200 15005KT 5SM -SHRA BKN025=



000
FTUS44 KEWX 161100
TAFAUS
TAF
KAUS 161122Z 1612/1718 35004KT P6SM FEW035 SCT200
     FM161500 07008KT P6SM BKN040
      TEMPO 1620/1624 VRB20G30KT 5SM TSRA BKN030CB
     FM170600 15005KT P6SM VCSH BKN025
     FM171200 15005KT 5SM -SHRA BKN025=



000
FTUS44 KEWX 161100 AAB
TAFDRT
TAF AMD
KDRT 161104Z 1611/1706 00000KT P6SM FEW035 OVC150
     FM161600 10008KT P6SM SCT035 OVC150 PROB30 1622/1704 VRB20KT
      5SM TSRA OVC030CB=



000
FTUS44 KEWX 161100 AAC
TAFAUS
TAF AMD
KAUS 161103Z 1611/1712 35004KT P6SM SCT035 BKN200
     FM161500 07005KT P6SM BKN040
      TEMPO 1620/1624 VRB20G30KT 5SM TSRA BKN030CB
     FM170900 08005KT P6SM VCSH BKN025=



000
FTUS44 KEWX 160900 AAB
TAFSAT
TAF AMD
KSAT 160918Z 1609/1712 05003KT P6SM FEW030 SCT070 SCT250
     FM161200 06004KT P6SM BKN025
     FM161800 09010KT P6SM BKN035
      TEMPO 1621/1701 VRB20G30KT 5SM TSRA BKN030CB
     FM170600 10005KT P6SM VCSH BKN025=



000
FTUS44 KEWX 160800 AAB
TAFAUS
TAF AMD
KAUS 160838Z 1609/1712 03005KT P6SM BKN150 BKN200
     FM161100 03006KT P6SM BKN025
     FM161700 07005KT P6SM BKN035
      TEMPO 1620/1624 VRB20G30KT 5SM TSRA BKN030CB
     FM170900 08005KT P6SM BKN025=



000
FTUS44 KEWX 160800 AAA
TAFDRT
TAF AMD
KDRT 160817Z 1608/1706 06003KT P6SM BKN150
     FM161100 10003KT P6SM BKN025
     FM161700 12007KT P6SM SCT035 PROB30 1622/1704 VRB20KT 5SM TSRA
      OVC030CB=



000
FTUS44 KEWX 160800 AAA
TAFAUS
TAF AMD
KAUS 160815Z 1608/1712 03005KT P6SM BKN150 BKN200
     FM160900 05006KT P6SM BKN025
     FM161200 03006KT P6SM OVC015
     FM161700 07005KT P6SM BKN035 PROB30 1621/1703 VRB20G30KT 5SM
      TSRA BKN030CB
     FM170900 08005KT P6SM BKN025=



000
FTUS44 KEWX 160800 AAA
TAFSAT
TAF AMD
KSAT 160814Z 1608/1712 06004KT P6SM BKN026 BKN070 OVC250
     FM161000 06004KT P6SM BKN019
     FM161600 07008KT P6SM BKN025
     FM161800 10010KT P6SM BKN035 PROB30 1621/1703 VRB20G30KT 5SM
      TSRA BKN030CB
     FM170600 10005KT P6SM BKN025=



000
FTUS44 KEWX 160400 AAA
TAFDRT
TAF AMD
KDRT 160433Z 1605/1624 12006KT P6SM BKN250
     FM161100 10003KT P6SM BKN025
     FM161700 12007KT P6SM SCT035 PROB30 1622/1624 VRB20KT 5SM TSRA
      OVC030CB=



000
FTUS44 KEWX 160400 AAA
TAFSAT
TAF AMD
KSAT 160430Z 1605/1706 02005KT P6SM FEW050 SCT250
     FM160800 04006KT P6SM BKN025
     FM161000 04004KT P6SM BKN009
     FM161600 07008KT P6SM BKN035 PROB30 1620/1702 VRB20G30KT 5SM
      TSRA BKN030CB=



000
FTUS44 KEWX 160400 AAA
TAFAUS
TAF AMD
KAUS 160427Z 1604/1706 06008KT P6SM FEW035 BKN250
     FM160900 05006KT P6SM BKN025
     FM161200 03006KT P6SM OVC015
     FM161700 07005KT P6SM BKN035 PROB30 1620/1702 VRB20G30KT 5SM
      TSRA BKN030CB=



000
FTUS44 KEWX 152300
TAFDRT
TAF
KDRT 152340Z 1600/1624 14007KT P6SM BKN250
     FM160200 10006KT P6SM BKN150
     FM161100 08003KT P6SM BKN025
     FM161700 13007KT P6SM SCT035=



000
FTUS44 KEWX 152300
TAFSAT
TAF
KSAT 152340Z 1600/1706 08006KT P6SM FEW050 SCT250
     FM160700 12006KT P6SM BKN025
     FM160900 VRB03KT P6SM BKN015
     FM161700 10005KT P6SM BKN035 PROB30 1620/1702 VRB20G30KT 5SM
      TSRA BKN030CB=



000
FTUS44 KEWX 152300
TAFAUS
TAF
KAUS 152340Z 1600/1706 08008KT P6SM FEW050 SCT250
     FM160800 11006KT P6SM BKN025
     FM161200 12006KT P6SM OVC015
     FM161700 08005KT P6SM BKN035 PROB30 1620/1702 VRB20G30KT 5SM
      TSRA BKN030CB=



000
FTUS44 KEWX 151700
TAFAUS
TAF
KAUS 151739Z 1518/1624 08004KT P6SM BKN028
     FM151900 09005KT P6SM BKN040 BKN200
     FM160800 11006KT P6SM BKN025
     FM161200 12006KT P6SM OVC015
     FM161700 11005KT P6SM BKN035 PROB30 1620/1624 VRB20G30KT 5SM
      TSRA BKN030CB=



000
FTUS44 KEWX 151700
TAFSAT
TAF
KSAT 151739Z 1518/1624 VRB05KT P6SM BKN025
     FM151900 09005KT P6SM BKN040 BKN150
     FM160700 12006KT P6SM BKN025
     FM160900 VRB03KT P6SM BKN015
     FM161700 10005KT P6SM BKN035 PROB30 1620/1624 VRB20G30KT 5SM
      TSRA BKN030CB=



000
FTUS44 KEWX 151700
TAFDRT
TAF
KDRT 151739Z 1518/1618 16007KT P6SM SCT025
      TEMPO 1518/1519 BKN025
     FM151900 15009KT P6SM SCT035 BKN150
     FM160200 10006KT P6SM BKN150
     FM160900 09004KT P6SM BKN040
     FM161100 08003KT P6SM BKN025
     FM161700 13007KT P6SM SCT035=



000
FTUS44 KEWX 151600 AAA
TAFSAT
TAF AMD
KSAT 151637Z 1517/1618 VRB04KT P6SM OVC018
     FM151800 06004KT P6SM BKN025
     FM151900 09005KT P6SM SCT040 BKN150
     FM160800 VRB03KT P6SM BKN015
     FM161700 09005KT P6SM BKN035=



000
FTUS44 KEWX 151600 AAA
TAFAUS
TAF AMD
KAUS 151634Z 1517/1618 06004KT P6SM OVC025
     FM151900 07004KT P6SM BKN028
     FM152000 08005KT P6SM SCT040 BKN200
     FM160900 VRB03KT P6SM BKN018
     FM161600 08005KT P6SM BKN035=



000
FTUS44 KEWX 151200 AAA
TAFDRT
TAF AMD
KDRT 151201Z 1512/1612 09005KT P6SM OVC016
     FM151600 15006KT P6SM BKN022
     FM151800 15009KT P6SM SCT035 BKN150
     FM160200 10004KT P6SM BKN150=



000
FTUS44 KEWX 151100
TAFSAT
TAF
KSAT 151122Z 1512/1618 02003KT P6SM BKN016 BKN200
     FM151500 VRB03KT P6SM BKN025
     FM151700 09005KT P6SM SCT040 BKN150
     FM160800 VRB03KT P6SM BKN015
     FM161700 09005KT P6SM BKN035=



000
FTUS44 KEWX 151100
TAFAUS
TAF
KAUS 151122Z 1512/1618 00000KT P6SM OVC028
     FM151500 VRB03KT P6SM BKN028
     FM151700 08005KT P6SM SCT040 BKN200
     FM160900 VRB03KT P6SM BKN018
     FM161600 08005KT P6SM BKN035=



000
FTUS44 KEWX 151100
TAFDRT
TAF
KDRT 151122Z 1512/1612 05006KT P6SM BKN023 OVC029
     FM151600 15006KT P6SM BKN022
     FM151800 15009KT P6SM SCT035 BKN150
     FM160200 10004KT P6SM BKN150=



000
FTUS44 KEWX 151100 AAC
TAFAUS
TAF AMD
KAUS 151103Z 1511/1612 00000KT P6SM OVC026
     FM151500 VRB03KT P6SM BKN028
     FM151700 10005KT P6SM SCT035 BKN200
     FM160900 VRB03KT P6SM BKN012=



000
FTUS44 KEWX 150900 AAB
TAFDRT
TAF AMD
KDRT 150932Z 1510/1606 09003KT P6SM BKN024
     FM151200 11004KT P6SM OVC014
     FM151600 15006KT P6SM BKN022
     FM151800 15009KT P6SM SCT035 BKN150=



000
FTUS44 KEWX 150900 AAB
TAFSAT
TAF AMD
KSAT 150914Z 1509/1612 00000KT P6SM SCT027 BKN250
     FM151000 VRB03KT P6SM BKN018
     FM151300 VRB03KT P6SM BKN025
     FM151700 10006KT P6SM SCT050 BKN150
     FM160800 VRB03KT P6SM BKN015=



000
FTUS44 KEWX 150800 AAB
TAFAUS
TAF AMD
KAUS 150846Z 1509/1612 28004KT P6SM BKN027 BKN150
     FM151100 VRB03KT P6SM BKN016
     FM151500 10005KT P6SM BKN022
     FM151700 10005KT P6SM SCT035 BKN200
     FM160900 VRB03KT P6SM BKN012=



000
FTUS44 KEWX 150800 AAA
TAFAUS
TAF AMD
KAUS 150801Z 1508/1612 00000KT 5SM BR FEW020 SCT200
     FM150930 00000KT 5SM BR BKN016
     FM151500 10005KT P6SM BKN022
     FM151700 10005KT P6SM SCT035 BKN200
     FM160900 VRB03KT P6SM BKN012=



000
FTUS44 KEWX 150700 AAA
TAFDRT
TAF AMD
KDRT 150730Z 1508/1606 00000KT P6SM OVC040
     FM151000 VRB03KT P6SM BKN022
     FM151200 11004KT P6SM OVC014
     FM151600 15006KT P6SM BKN022
     FM151800 15009KT P6SM SCT035 BKN150=



000
FTUS44 KEWX 150700 AAA
TAFSAT
TAF AMD
KSAT 150713Z 1507/1612 00000KT P6SM BKN020
      TEMPO 1507/1509 SCT020 BKN200
     FM151000 VRB02KT P6SM BKN015
     FM151300 VRB04KT P6SM BKN025
     FM151700 09006KT P6SM SCT050 BKN150
     FM160800 03003KT P6SM BKN015=



000
FTUS44 KEWX 150500
TAFDRT
TAF
KDRT 150520Z 1506/1606 27003KT P6SM OVC040
     FM150800 VRB02KT P6SM BKN025
     FM151000 07004KT P6SM OVC009
     FM151500 13005KT P6SM OVC019
     FM151800 15007KT P6SM OVC035=



000
FTUS44 KEWX 150500
TAFAUS
TAF
KAUS 150520Z 1506/1612 00000KT P6SM SCT100 SCT250
     FM151000 01002KT P6SM BKN015
     FM151100 VRB03KT P6SM BKN009
     FM151500 04005KT P6SM BKN020
     FM151700 06006KT P6SM BKN035
     FM161000 00000KT P6SM BKN025=



000
FTUS44 KEWX 150500
TAFSAT
TAF
KSAT 150520Z 1506/1612 05003KT P6SM BKN200
     FM151000 VRB02KT P6SM BKN015
     FM151300 VRB04KT P6SM BKN025
     FM151700 09006KT P6SM OVC050
     FM161000 03003KT P6SM BKN025=



000
FTUS44 KEWX 150200 AAA
TAFDRT
TAF AMD
KDRT 150229Z 1502/1524 24004KT P6SM BKN025
     FM150900 03002KT P6SM OVC007
     FM151500 15007KT P6SM BKN020
     FM152000 15007KT P6SM OVC050=



000
FTUS44 KEWX 142300
TAFDRT
TAF
KDRT 142326Z 1500/1524 00000KT P6SM OVC018
     FM150400 VRB03KT P6SM BKN015
     FM150900 03002KT P6SM OVC007
     FM151500 15007KT P6SM BKN020
     FM152000 15007KT P6SM OVC050=



000
FTUS44 KEWX 142300
TAFAUS
TAF
KAUS 142326Z 1500/1606 VRB06KT P6SM SCT023 SCT080 BKN250
     FM150400 VRB02KT P6SM BKN020
     FM150700 01002KT P6SM BKN015
     FM151100 01003KT P6SM BKN009
     FM151500 04007KT P6SM BKN020
     FM151800 06006KT P6SM BKN035=



000
FTUS44 KEWX 142300
TAFSAT
TAF
KSAT 142326Z 1500/1606 08006KT P6SM FEW030 BKN230
     FM150400 VRB03KT P6SM BKN025
     FM151100 03002KT P6SM OVC015
     FM151300 02004KT P6SM BKN050
     FM152300 08008KT P6SM OVC070=



000
FTUS44 KEWX 142000 AAA
TAFSAT
TAF AMD
KSAT 142023Z 1420/1524 05007KT P6SM SCT025
     FM150300 VRB03KT P6SM BKN015
     FM151500 08008KT P6SM BKN020=



000
FTUS44 KEWX 141700
TAFAUS
TAF
KAUS 141720Z 1418/1524 03007KT P6SM OVC008
     FM142000 04007KT P6SM BKN012
     FM150300 VRB02KT P6SM BKN015
     FM151500 05007KT P6SM BKN020=



000
FTUS44 KEWX 141700
TAFDRT
TAF
KDRT 141720Z 1418/1518 15007KT P6SM OVC011
     FM150300 VRB03KT P6SM BKN010
     FM151500 15007KT P6SM BKN020=



000
FTUS44 KEWX 141700
TAFSAT
TAF
KSAT 141720Z 1418/1524 05007KT P6SM OVC015
     FM150300 VRB03KT P6SM BKN015
     FM151500 08008KT P6SM BKN020=



000
FTUS44 KEWX 141100 CCA
TAFDRT
TAF COR
KDRT 141135Z 1412/1512 30007KT 3SM BR OVC006
      TEMPO 1412/1414 2SM BR OVC003
     FM141500 09007KT P6SM BKN015
     FM142000 16007KT P6SM BKN050
     FM150900 09003KT P6SM BKN025=



000
FTUS44 KEWX 141100
TAFDRT
TAF
KDRT 141120Z 1412/1512 30007KT 3SM BR OVC006
     FM141500 09007KT P6SM BKN015
     FM142000 16007KT P6SM BKN050
     FM150900 09003KT P6SM BKN025=



000
FTUS44 KEWX 141100
TAFSAT
TAF
KSAT 141120Z 1412/1518 32004KT P6SM OVC015
      TEMPO 1412/1414 BKN008
     FM141900 04007KT P6SM BKN035
     FM151000 03005KT P6SM BKN020
     FM151500 03005KT P6SM SCT025=



000
FTUS44 KEWX 141100
TAFAUS
TAF
KAUS 141120Z 1412/1518 32004KT 4SM BR OVC007
     FM141500 03006KT P6SM BKN015
     FM141900 04007KT P6SM BKN035
     FM150800 03005KT P6SM BKN020
     FM151600 03005KT P6SM SCT025=



000
FTUS44 KEWX 140900 AAA
TAFDRT
TAF AMD
KDRT 140949Z 1410/1506 30007KT P6SM OVC007
     FM141500 09007KT P6SM BKN012
     FM141700 13007KT P6SM OVC020
     FM142000 16007KT P6SM OVC050=



000
FTUS44 KEWX 140900 AAA
TAFAUS
TAF AMD
KAUS 140924Z 1409/1512 32004KT 4SM BR OVC007
     FM141600 03006KT 6SM BR BKN020
     FM141900 04008KT P6SM OVC035=



000
FTUS44 KEWX 140500
TAFSAT
TAF
KSAT 140520Z 1406/1512 03007KT P6SM FEW012 OVC018
     FM141000 05006KT P6SM OVC007
     FM141500 04006KT P6SM OVC020
     FM141900 05007KT P6SM BKN035=



000
FTUS44 KEWX 140500
TAFAUS
TAF
KAUS 140520Z 1406/1512 32004KT P6SM BKN024
     FM140700 36004KT 4SM BR OVC010
     FM141200 01004KT 4SM BR OVC007
     FM141600 03006KT 6SM BR BKN020
     FM141900 04008KT P6SM OVC035=



000
FTUS44 KEWX 140500
TAFDRT
TAF
KDRT 140520Z 1406/1506 30007KT P6SM OVC027
     FM140800 01005KT P6SM OVC015
     FM141300 10005KT P6SM OVC009
     FM141700 13007KT P6SM OVC020
     FM142000 16007KT P6SM OVC050=



000
FTUS44 KEWX 140100 AAA
TAFAUS
TAF AMD
KAUS 140153Z 1402/1506 01006KT P6SM SCT009 BKN023
     FM140300 35003KT 6SM BR OVC009
     FM140600 01004KT 5SM BR OVC004
     FM141600 03006KT 6SM BR BKN019
     FM141900 04006KT P6SM OVC035=



000
FTUS44 KEWX 132300
TAFSAT
TAF
KSAT 132322Z 1400/1506 01008KT P6SM OVC015
     FM140900 01005KT P6SM OVC009
     FM141500 04006KT P6SM OVC019
     FM141700 05006KT P6SM BKN035=



000
FTUS44 KEWX 132300
TAFAUS
TAF
KAUS 132322Z 1400/1506 36006KT 6SM BR OVC009
     FM140600 01004KT 5SM BR OVC004
     FM141600 03006KT 6SM BR BKN019
     FM141900 04006KT P6SM OVC035=



000
FTUS44 KEWX 132300
TAFDRT
TAF
KDRT 132322Z 1400/1424 30012KT P6SM OVC025
     FM140800 00000KT P6SM OVC009
     FM141000 34002KT P6SM OVC004
     FM141500 10006KT P6SM OVC007
     FM141700 10007KT P6SM OVC019
     FM142100 16007KT P6SM OVC050=



    US Dept of Commerce
    National Oceanic and Atmospheric Administration
    National Weather Service
    1325 East West Highway
    Silver Spring, MD 20910
    Page Author: NWS Internet Services Team
Disclaimer
Information Quality
Credits
Glossary
Privacy Policy
Freedom of Information Act (FOIA)
About Us
Career Opportunities